• Join FlightAware (Why Join?)
  • Login
  • US Flag 
08:03AM EDT


 

Airport Tracker/Info


-or-


 

Live Flight TrackerFlight Track Log ✈ RPA3346 ✈ 08-May-2013 ✈ KIND - KDCA

Flight Track Log - Related Links

Times and Time Zones

All times are in EDT time to prevent confusion due to time zone crossing. See the RPA3346 flight status page for this flight to view local times or setup timezone preferences in your user account.

Time Position Orientation Groundspeed Altitude Reporting Facility
EDT Latitude Longitude Course Direction KTS MPH feet Rate Location/Type
08:51AM 39.7333 -86.2833 74° East 160 184 1,700  Level Indianapolis TRACON
08:51AM 39.7500 -86.2500 57° Northeast 179 206 2,600 2,280 Climbing Indianapolis TRACON
08:52AM 39.7667 -86.1667 75° East 270 311 5,600 3,060 Climbing Indianapolis TRACON
08:53AM 39.7750 -85.8667 83° East  Level FlightAware Approximate
08:54AM 39.7922 -85.7260 79° East  Level FlightAware Approximate
08:54AM 39.7881 -86.0389 78° East 270 311 10,200  Level Indianapolis Center
08:55AM 39.8137 -85.5862 79° East  Level FlightAware Approximate
08:55AM 39.8017 -85.9308 81° East 304 350 12,800  Level Indianapolis Center
08:56AM 39.8429 -85.4488 74° East  Level FlightAware Approximate
08:56AM 39.8092 -85.8153 85° East 320 368 15,500  Level Indianapolis Center
08:57AM 39.8133 -85.6928 87° East 333 383 18,100 2,340 Climbing Indianapolis Center
08:58AM 39.8169 -85.5686 88° East 343 395 20,400 2,160 Climbing Indianapolis Center
08:59AM 39.8200 -85.4392 88° East 356 410 22,600 2,160 Climbing Indianapolis Center
09:00AM 39.8244 -85.2761 88° East 375 432 24,900 1,260 Climbing Indianapolis Center
09:01AM 39.8283 -85.1392 88° East 379 436 25,300 1,080 Climbing Indianapolis Center
09:02AM 39.8319 -85.0003 88° East 384 442 27,200 1,500 Climbing Indianapolis Center
09:03AM 39.8350 -84.8650 88° East 393 452 28,400 1,500 Climbing Indianapolis Center
09:04AM 39.8389 -84.7203 88° East 397 457 30,300 1,200 Climbing Indianapolis Center
09:05AM 39.8411 -84.5539 89° East 392 451 31,000 300 Climbing Indianapolis Center
09:06AM 39.8442 -84.4122 88° East 390 449 31,000  Level Indianapolis Center
09:07AM 39.8469 -84.2692 89° East 391 450 31,000  Level Indianapolis Center
09:08AM 39.8497 -84.1267 88° East 392 451 31,000  Level Indianapolis Center
09:09AM 39.8519 -83.9842 89° East 391 450 31,000  Level Indianapolis Center
09:10AM 39.8542 -83.8442 89° East 385 443 31,000  Level Indianapolis Center
09:11AM 39.8561 -83.7031 89° East 387 445 31,000  Level Indianapolis Center
09:12AM 39.8583 -83.5453 89° East 386 444 31,000  Level Indianapolis Center
09:13AM 39.8600 -83.4042 89° East 387 445 31,000  Level Indianapolis Center
09:14AM 39.8622 -83.2692 89° East 387 445 31,000  Level Indianapolis Center
09:15AM 39.8633 -83.1281 89° East 386 444 31,000  Level Indianapolis Center
09:16AM 39.8636 -82.9881 90° East 384 442 31,000  Level Indianapolis Center
09:18AM 39.8650 -82.8239 89° East 384 442 31,000  Level Indianapolis Center
09:19AM 39.8650 -82.6839 90° East 384 442 31,000  Level Indianapolis Center
09:20AM 39.8658 -82.5439 90° East 384 442 31,000  Level Indianapolis Center
09:21AM 39.8656 -82.4056 90° East 380 437 31,000  Level Indianapolis Center
09:22AM 39.8675 -82.2658 89° East 381 438 31,000  Level Indianapolis Center
09:23AM 39.8667 -82.1272 90° East 380 437 31,000  Level Indianapolis Center
09:24AM 39.8672 -81.9858 90° East 386 444 31,000 -60 Level Indianapolis Center
09:25AM 39.8658 -81.8467 91° East 384 442 30,900  Descending Indianapolis Center
09:26AM 39.8658 -81.6869 90° East 376 433 31,000  Climbing Indianapolis Center
09:27AM 39.8650 -81.5650 90° East 384 442 31,000  Level Cleveland Center
09:28AM 39.8658 -81.4297 89° East 373 429 31,000  Level Cleveland Center
09:29AM 39.8731 -81.3053 86° East 373 429 31,000  Level Cleveland Center
09:30AM 39.8675 -81.1700 93° East 373 429 31,000  Level Cleveland Center
09:31AM 39.8203 -81.0425 116° Southeast 373 429 31,000  Level Cleveland Center
09:32AM 39.7664 -80.9153 119° Southeast 386 444 31,000  Level Cleveland Center
09:33AM 39.7147 -80.7908 118° Southeast 386 444 31,000  Level Cleveland Center
09:34AM 39.6586 -80.6667 120° Southeast 391 450 31,000  Level Cleveland Center
09:35AM 39.6064 -80.5400 118° Southeast 396 456 31,000  Level Cleveland Center
09:36AM 39.5522 -80.4133 119° Southeast 396 456 31,000  Level Cleveland Center
09:37AM 39.4997 -80.2925 119° Southeast 396 456 31,000  Level Cleveland Center
09:38AM 39.4381 -80.1467 119° Southeast 394 453 31,000  Level Washington Center
09:39AM 39.3842 -80.0222 119° Southeast 394 453 31,000  Level Washington Center
09:40AM 39.3283 -79.8981 120° Southeast 394 453 31,000  Level Washington Center
09:41AM 39.2911 -79.7697 111° Southeast 394 453 31,000  Level Washington Center
09:42AM 39.2794 -79.6269 96° East 386 444 31,000  Level Washington Center
09:43AM 39.2692 -79.4897 95° East 386 444 31,000 -600 Level Washington Center
09:44AM 39.2592 -79.3497 95° East 392 451 29,800 -1,680 Descending Washington Center
09:45AM 39.2447 -79.2097 98° East 392 451 27,700 -1,560 Descending Washington Center
09:46AM 39.2339 -79.0806 96° East 387 445 26,800 -1,020 Descending Washington Center
09:47AM 39.2231 -78.9514 96° East 373 429 25,800 -1,440 Descending Washington Center
09:48AM 39.2117 -78.8303 97° East 361 415 24,000 -1,860 Descending Washington Center
09:49AM 39.2003 -78.7092 97° East 350 403 22,100 -1,800 Descending Washington Center
09:50AM 39.1867 -78.5908 98° East 344 396 20,400 -1,860 Descending Washington Center
09:51AM 39.1750 -78.4725 97° East 334 384 18,500 -1,860 Descending Washington Center
09:52AM 39.1589 -78.3514 100° East 334 384 16,800 -1,260 Descending Washington Center
09:53AM 39.1325 -78.2381 107° East 334 384 16,000 -900 Descending Washington Center
09:54AM 39.1036 -78.1247 108° East 339 390 15,100 -1,020 Descending Washington Center
09:55AM 39.0747 -78.0114 108° East 339 390 14,100 -1,080 Descending Washington Center
09:56AM 39.0456 -77.9008 109° East 333 383 13,000 -1,320 Descending Washington Center
09:57AM 39.0203 -77.7958 107° East 317 365 11,500 -1,020 Descending Washington Center
09:58AM 38.9969 -77.7042 108° East 305 351 11,000 -480 Descending Washington Center
09:59AM 38.9667 -77.6167 114° Southeast 278 320 10,700 -1,080 Descending Potomac TRACON
10:00AM 38.9500 -77.5333 104° East 276 318 9,200 -1,380 Descending Potomac TRACON
10:00AM 38.9167 -77.4500 117° Southeast 275 316 8,100 -1,320 Descending Potomac TRACON
10:01AM 38.8833 -77.3667 117° Southeast 264 304 6,800 -1,140 Descending Potomac TRACON
10:02AM 38.8500 -77.3000 123° Southeast 238 274 6,000 -480 Descending Potomac TRACON
10:03AM 38.8167 -77.2333 123° Southeast 221 254 6,000 -480 Level Potomac TRACON
10:04AM 38.7833 -77.1667 123° Southeast 221 254 5,100 -1,020 Descending Potomac TRACON
10:05AM 38.7500 -77.1167 131° Southeast 222 255 4,000 -960 Descending Potomac TRACON
10:06AM 38.7000 -77.1000 165° South 188 216 3,300 -780 Descending Potomac TRACON
10:07AM 38.7000 -77.0500 90° East 185 213 2,500 -600 Descending Potomac TRACON
10:08AM 38.7500 -77.0333 15° North 184 212 2,100 -420 Descending Potomac TRACON